Time;durP1;ratioP1;P1;durP2;ratioP2;P2;SDS_P1;SDS_P2;PMS_P1;PMS_P2;Temp;Humidity;BMP_temperature;BMP_pressure;BME280_temperature;BME280_humidity;BME280_pressure;Samples;Min_cycle;Max_cycle;Signal;HPM_P1;HPM_P2
2021/11/09 00:00:21;;;;;;;18.77;9.13;;;8.80;99.90;;;;;;5031690;28;20434;-71
2021/11/09 00:02:48;;;;;;;22.47;9.40;;;8.70;99.90;;;;;;5028593;28;20495;-71
2021/11/09 00:05:17;;;;;;;18.83;9.30;;;8.70;99.90;;;;;;5031169;28;20421;-70
2021/11/09 00:07:48;;;;;;;19.37;10.17;;;8.80;99.90;;;;;;5031717;28;20413;-70
2021/11/09 00:10:14;;;;;;;18.23;9.63;;;8.80;99.90;;;;;;5031458;28;20437;-71
2021/11/09 00:12:46;;;;;;;15.67;8.50;;;8.70;99.90;;;;;;5030416;28;21009;-69
2021/11/09 00:15:15;;;;;;;18.33;8.70;;;8.60;99.90;;;;;;5031109;28;20432;-70
2021/11/09 00:17:40;;;;;;;16.80;9.40;;;8.60;99.90;;;;;;5031672;28;20429;-70
2021/11/09 00:20:08;;;;;;;16.60;9.10;;;8.50;99.90;;;;;;5030963;28;20986;-71
2021/11/09 00:22:34;;;;;;;19.53;9.27;;;8.50;99.90;;;;;;5031336;28;20429;-70
2021/11/09 00:25:00;;;;;;;19.50;9.00;;;8.50;99.90;;;;;;5031615;28;20423;-72
2021/11/09 00:27:26;;;;;;;19.60;10.00;;;8.50;99.90;;;;;;5031266;28;20178;-71
2021/11/09 00:29:51;;;;;;;22.90;9.60;;;8.40;99.90;;;;;;5013517;28;20203;-70
2021/11/09 00:32:17;;;;;;;19.00;9.77;;;8.30;99.90;;;;;;5031075;28;20199;-71
2021/11/09 00:34:44;;;;;;;18.43;9.53;;;8.20;99.90;;;;;;5032975;28;20179;-71
2021/11/09 00:37:11;;;;;;;18.47;10.60;;;8.10;99.90;;;;;;5038980;28;20508;-71
2021/11/09 00:39:37;;;;;;;20.30;11.70;;;8.00;99.90;;;;;;5045615;28;20483;-72
2021/11/09 00:42:03;;;;;;;21.47;12.40;;;8.00;99.90;;;;;;5046652;28;20405;-71
2021/11/09 00:44:29;;;;;;;23.37;9.00;;;8.10;99.90;;;;;;5018465;28;20939;-72
2021/11/09 00:46:55;;;;;;;14.67;10.43;;;8.00;99.90;;;;;;5031271;28;20511;-71
2021/11/09 00:49:21;;;;;;;20.17;9.90;;;8.00;99.90;;;;;;5032432;28;20686;-71
2021/11/09 00:51:48;;;;;;;14.13;10.30;;;8.00;99.90;;;;;;5034561;28;20221;-70
2021/11/09 00:54:14;;;;;;;16.03;9.60;;;7.90;99.90;;;;;;5034281;28;20888;-70
2021/11/09 00:56:40;;;;;;;18.80;9.73;;;8.00;99.90;;;;;;5033891;28;20415;-72
2021/11/09 00:59:07;;;;;;;18.63;9.43;;;8.00;99.90;;;;;;5034390;28;20183;-71
2021/11/09 01:01:33;;;;;;;14.03;8.57;;;8.00;99.90;;;;;;5034240;28;20493;-71
2021/11/09 01:03:59;;;;;;;17.73;9.57;;;8.00;99.90;;;;;;5034354;28;20439;-71
2021/11/09 01:06:25;;;;;;;16.10;8.53;;;7.90;99.90;;;;;;5033852;28;20471;-71
2021/11/09 01:08:51;;;;;;;20.23;8.77;;;7.90;99.90;;;;;;5034876;28;20414;-71
2021/11/09 01:11:17;;;;;;;19.57;8.63;;;8.00;99.90;;;;;;5034357;28;20260;-71
2021/11/09 01:13:42;;;;;;;17.27;9.30;;;8.00;99.90;;;;;;5033481;28;20544;-71
2021/11/09 01:16:08;;;;;;;20.90;9.33;;;8.00;99.90;;;;;;5033848;28;20501;-71
2021/11/09 01:18:41;;;;;;;16.90;9.70;;;8.00;99.90;;;;;;5033768;28;20178;-73
2021/11/09 01:21:07;;;;;;;20.60;9.23;;;8.00;99.90;;;;;;5034079;28;20163;-73
2021/11/09 01:23:33;;;;;;;15.30;9.23;;;7.90;99.90;;;;;;5034383;28;20416;-72
2021/11/09 01:26:00;;;;;;;18.13;10.20;;;7.90;99.90;;;;;;5033950;28;20777;-71
2021/11/09 01:28:26;;;;;;;19.37;9.53;;;7.80;99.90;;;;;;5033982;28;20186;-72
2021/11/09 01:30:53;;;;;;;16.80;9.00;;;7.70;99.90;;;;;;5033940;28;20915;-73
2021/11/09 01:33:19;;;;;;;18.20;9.80;;;7.80;99.90;;;;;;5033968;28;20458;-71
2021/11/09 01:35:45;;;;;;;26.03;9.33;;;7.80;99.90;;;;;;5033209;28;20421;-73
2021/11/09 01:38:11;;;;;;;18.37;8.73;;;7.90;99.90;;;;;;5033947;28;20233;-72
2021/11/09 01:40:38;;;;;;;16.53;10.57;;;7.90;99.90;;;;;;5033935;28;20433;-73
2021/11/09 01:43:05;;;;;;;17.60;9.40;;;7.90;99.90;;;;;;5033845;28;20448;-72
2021/11/09 01:45:31;;;;;;;15.70;9.10;;;8.00;99.90;;;;;;5032592;28;20990;-71
2021/11/09 01:47:57;;;;;;;14.43;9.10;;;7.90;99.90;;;;;;5033933;28;20413;-72
2021/11/09 01:50:46;;;;;;;18.50;9.00;;;7.80;99.90;;;;;;5033928;28;21059;-72
2021/11/09 01:53:14;;;;;;;17.13;8.87;;;7.70;99.90;;;;;;5033808;28;20437;-72
2021/11/09 01:55:40;;;;;;;15.90;8.90;;;7.80;99.90;;;;;;5034166;28;20443;-71
2021/11/09 01:58:07;;;;;;;21.30;8.27;;;7.80;99.90;;;;;;5016197;28;20415;-73
2021/11/09 02:00:44;;;;;;;12.70;9.17;;;7.80;99.90;;;;;;5033999;28;20433;-72
2021/11/09 02:03:11;;;;;;;13.80;8.00;;;7.90;99.90;;;;;;5033414;28;20410;-72
2021/11/09 02:05:37;;;;;;;18.10;9.47;;;7.90;99.90;;;;;;5033412;28;20741;-72
2021/11/09 02:08:04;;;;;;;12.30;8.23;;;8.00;99.90;;;;;;5033741;28;20504;-71
2021/11/09 02:10:32;;;;;;;18.83;9.93;;;8.00;99.90;;;;;;5033928;28;20321;-73
2021/11/09 02:12:58;;;;;;;21.03;9.97;;;8.00;99.90;;;;;;5033228;28;20966;-72
2021/11/09 02:15:25;;;;;;;11.43;7.67;;;7.90;99.90;;;;;;5033069;28;20493;-73
2021/11/09 02:17:51;;;;;;;15.37;9.10;;;7.80;99.90;;;;;;5032644;28;20487;-72
2021/11/09 02:20:19;;;;;;;17.63;9.97;;;7.60;99.90;;;;;;5048481;22;20525;-69
2021/11/09 02:22:45;;;;;;;19.37;9.90;;;7.40;99.90;;;;;;5004957;28;20176;-69
2021/11/09 02:25:13;;;;;;;17.40;9.90;;;7.20;99.90;;;;;;5012522;28;20753;-69
2021/11/09 02:27:39;;;;;;;19.47;9.70;;;7.10;99.90;;;;;;5013847;28;20409;-70
2021/11/09 02:30:09;;;;;;;20.53;10.27;;;7.00;99.90;;;;;;5009846;28;20953;-69
2021/11/09 02:32:35;;;;;;;18.70;11.63;;;6.90;99.90;;;;;;4992915;28;20659;-70
2021/11/09 02:35:01;;;;;;;20.40;10.83;;;6.90;99.90;;;;;;4992721;28;20418;-70
2021/11/09 02:37:27;;;;;;;18.93;10.43;;;6.80;99.90;;;;;;4993074;28;20400;-70
2021/11/09 02:39:53;;;;;;;24.00;11.27;;;6.80;99.90;;;;;;4993888;28;20427;-69
2021/11/09 02:42:19;;;;;;;19.70;10.20;;;6.80;99.90;;;;;;5002762;28;20178;-70
2021/11/09 02:44:57;;;;;;;17.20;10.67;;;6.70;99.90;;;;;;5012467;28;20836;-69
2021/11/09 02:47:26;;;;;;;20.87;10.10;;;6.80;99.90;;;;;;4995967;28;20424;-70
2021/11/09 02:49:59;;;;;;;15.80;9.67;;;6.80;99.90;;;;;;4992702;28;20496;-69
2021/11/09 02:52:27;;;;;;;25.80;11.23;;;6.80;99.90;;;;;;4993403;28;20934;-70
2021/11/09 02:54:59;;;;;;;15.60;9.40;;;6.80;99.90;;;;;;4992728;28;20412;-69
2021/11/09 02:57:36;;;;;;;15.73;10.20;;;6.80;99.90;;;;;;4992260;28;20399;-70
2021/11/09 03:00:21;;;;;;;19.13;10.30;;;6.80;99.90;;;;;;4992957;28;20392;-71
2021/11/09 03:02:59;;;;;;;13.47;9.50;;;6.90;99.90;;;;;;4993725;28;20419;-70
2021/11/09 03:05:46;;;;;;;18.80;10.07;;;7.00;99.90;;;;;;4992052;28;20490;-70
2021/11/09 03:08:31;;;;;;;20.10;10.90;;;7.00;99.90;;;;;;4992737;28;20519;-70
2021/11/09 03:10:57;;;;;;;16.13;8.40;;;7.00;99.90;;;;;;4992338;28;20458;-70
2021/11/09 03:13:23;;;;;;;15.33;9.90;;;7.00;99.90;;;;;;4993250;28;20443;-70
2021/11/09 03:15:50;;;;;;;18.70;9.53;;;7.10;99.90;;;;;;4992104;28;20414;-70
2021/11/09 03:18:19;;;;;;;18.47;10.10;;;7.10;99.90;;;;;;4992344;28;20423;-70
2021/11/09 03:20:56;;;;;;;14.00;9.17;;;7.00;99.90;;;;;;4992401;28;20443;-70
2021/11/09 03:40:11;;;;;;;18.20;9.17;;;6.80;99.90;;;;;;4991826;28;20482;-70
2021/11/09 03:45:35;;;;;;;20.87;10.00;;;7.00;99.90;;;;;;4980673;28;20465;-72
2021/11/09 03:48:08;;;;;;;18.50;11.60;;;7.00;99.90;;;;;;4992086;28;20419;-71
2021/11/09 03:50:37;;;;;;;18.33;10.03;;;7.10;99.90;;;;;;4992137;28;20200;-70
2021/11/09 03:53:29;;;;;;;19.53;10.40;;;7.10;99.90;;;;;;4991840;28;20467;-71
2021/11/09 04:01:08;;;;;;;17.87;9.50;;;6.90;99.90;;;;;;4993172;28;20196;-72
2021/11/09 04:16:48;;;;;;;17.37;10.80;;;6.70;99.90;;;;;;4978677;28;20861;-69
2021/11/09 04:19:30;;;;;;;14.97;9.60;;;6.70;99.90;;;;;;5014299;28;20414;-71
2021/11/09 04:23:24;;;;;;;14.97;9.00;;;6.80;99.90;;;;;;5014972;28;20457;-71
2021/11/09 04:25:16;;;;;;;17.00;8.87;;;6.80;99.90;;;;;;5007516;28;20533;-70
2021/11/09 04:45:41;;;;;;;14.30;10.70;;;6.50;99.90;;;;;;5014268;28;20434;-69
2021/11/09 04:52:01;;;;;;;14.00;10.30;;;6.50;99.90;;;;;;4995846;28;20515;-71
2021/11/09 05:02:52;;;;;;;19.73;10.20;;;6.20;99.90;;;;;;4992642;28;20795;-69
2021/11/09 05:10:48;;;;;;;22.23;12.23;;;6.10;99.90;;;;;;4996118;28;20454;-70
2021/11/09 05:13:14;;;;;;;17.10;11.10;;;6.10;99.90;;;;;;4992235;28;20462;-70
2021/11/09 05:15:39;;;;;;;14.43;10.17;;;6.20;99.90;;;;;;4994595;28;20415;-70
2021/11/09 05:18:05;;;;;;;19.13;10.23;;;6.30;99.90;;;;;;4995339;28;20219;-71
2021/11/09 05:20:31;;;;;;;18.93;10.73;;;6.30;99.90;;;;;;4996042;28;20327;-70
2021/11/09 05:22:58;;;;;;;22.73;10.43;;;6.30;99.90;;;;;;4985396;28;20527;-68
2021/11/09 05:25:24;;;;;;;18.13;10.93;;;6.30;99.90;;;;;;4991622;28;20427;-69
2021/11/09 05:27:50;;;;;;;17.80;10.07;;;6.30;99.90;;;;;;4989198;28;20841;-69
2021/11/09 05:30:16;;;;;;;13.43;9.73;;;6.40;99.90;;;;;;4993934;28;20487;-70
2021/11/09 05:32:43;;;;;;;13.80;10.33;;;6.40;99.90;;;;;;4994351;28;20591;-69
2021/11/09 05:35:10;;;;;;;17.70;10.53;;;6.50;99.90;;;;;;4995142;28;20430;-68
2021/11/09 05:37:48;;;;;;;17.33;10.60;;;6.60;99.90;;;;;;4994271;28;20403;-70
2021/11/09 05:40:14;;;;;;;19.57;9.57;;;6.60;99.90;;;;;;4976642;28;20443;-69
2021/11/09 05:42:40;;;;;;;17.70;10.00;;;6.70;99.90;;;;;;4994080;28;20511;-69
2021/11/09 05:45:08;;;;;;;16.63;10.80;;;6.70;99.90;;;;;;4994913;28;20505;-70
2021/11/09 05:47:34;;;;;;;15.50;10.10;;;6.70;99.90;;;;;;4994535;28;20184;-70
2021/11/09 05:50:00;;;;;;;21.67;10.37;;;6.70;99.90;;;;;;4994028;28;20434;-71
2021/11/09 05:52:25;;;;;;;17.80;10.77;;;6.70;99.90;;;;;;4993742;28;20177;-71
2021/11/09 05:54:51;;;;;;;17.03;10.90;;;6.70;99.90;;;;;;4993691;28;20169;-70
2021/11/09 05:57:17;;;;;;;19.63;11.70;;;6.40;99.90;;;;;;4994966;28;20211;-69
2021/11/09 05:59:43;;;;;;;17.50;12.20;;;6.20;99.90;;;;;;4994202;28;20175;-69
2021/11/09 06:02:08;;;;;;;21.93;13.47;;;6.10;99.90;;;;;;4994582;28;20200;-70
2021/11/09 06:04:34;;;;;;;27.27;15.60;;;6.20;99.90;;;;;;4993598;28;20554;-68
2021/11/09 06:06:59;;;;;;;19.63;12.57;;;6.20;99.90;;;;;;4995133;28;20176;-69
2021/11/09 06:09:25;;;;;;;21.60;11.80;;;6.20;99.90;;;;;;4994408;28;20184;-69
2021/11/09 06:11:51;;;;;;;23.63;11.47;;;6.30;99.90;;;;;;4996443;28;20200;-69
2021/11/09 06:14:16;;;;;;;17.10;11.37;;;6.40;99.90;;;;;;4993016;28;20199;-70
2021/11/09 06:16:42;;;;;;;17.23;11.20;;;6.40;99.90;;;;;;4993332;28;20469;-70
2021/11/09 06:19:07;;;;;;;15.90;10.87;;;6.50;99.90;;;;;;4994889;28;20180;-69
2021/11/09 06:21:33;;;;;;;20.07;11.47;;;6.50;99.90;;;;;;4993158;28;20217;-71
2021/11/09 06:24:00;;;;;;;23.73;11.90;;;6.60;99.90;;;;;;4993376;28;20173;-69
2021/11/09 06:26:26;;;;;;;17.30;11.23;;;6.50;99.90;;;;;;4992869;28;20415;-70
2021/11/09 06:28:56;;;;;;;18.60;11.77;;;6.60;99.90;;;;;;4994300;28;21012;-69
2021/11/09 06:31:22;;;;;;;21.70;12.00;;;6.60;99.90;;;;;;4992903;28;20507;-69
2021/11/09 06:33:48;;;;;;;17.63;11.17;;;6.70;99.90;;;;;;4992273;28;20530;-69
2021/11/09 06:36:13;;;;;;;16.33;11.83;;;6.70;99.90;;;;;;4992691;28;20419;-68
2021/11/09 06:38:39;;;;;;;14.33;11.37;;;6.70;99.90;;;;;;4993985;28;20207;-69
2021/11/09 06:41:05;;;;;;;17.10;11.90;;;6.80;99.90;;;;;;4993205;28;20276;-70
2021/11/09 06:43:31;;;;;;;19.47;11.37;;;6.70;99.90;;;;;;5013448;28;20655;-70
2021/11/09 06:45:57;;;;;;;19.20;11.80;;;6.70;99.90;;;;;;5014241;28;20419;-71
2021/11/09 06:48:24;;;;;;;22.77;12.33;;;6.80;99.90;;;;;;5014013;28;20613;-70
2021/11/09 06:50:50;;;;;;;19.27;12.17;;;6.80;99.90;;;;;;5012898;28;20943;-68
2021/11/09 06:53:16;;;;;;;22.33;12.70;;;6.80;99.90;;;;;;5011553;28;20570;-70
2021/11/09 06:55:42;;;;;;;16.50;11.70;;;6.80;99.90;;;;;;5012864;28;20464;-70
2021/11/09 06:58:07;;;;;;;18.90;12.00;;;6.80;99.90;;;;;;5012554;28;20173;-71
2021/11/09 07:00:34;;;;;;;13.90;11.57;;;6.80;99.90;;;;;;5005233;28;20426;-70
2021/11/09 07:02:59;;;;;;;19.33;12.67;;;6.90;99.90;;;;;;4997388;28;20513;-70
2021/11/09 07:05:25;;;;;;;24.33;15.60;;;6.90;99.90;;;;;;5003894;28;20443;-70
2021/11/09 07:07:51;;;;;;;25.10;15.90;;;6.80;99.90;;;;;;4997086;28;20848;-70
2021/11/09 07:10:16;;;;;;;37.67;20.63;;;6.90;99.90;;;;;;5006268;28;20447;-70
2021/11/09 07:12:43;;;;;;;43.13;25.40;;;6.70;99.90;;;;;;4997270;28;20273;-69
2021/11/09 07:15:09;;;;;;;40.87;20.97;;;6.70;99.90;;;;;;4992705;28;20204;-69
2021/11/09 07:17:39;;;;;;;41.70;22.00;;;6.70;99.90;;;;;;5002382;28;20546;-70
2021/11/09 07:20:16;;;;;;;33.07;18.70;;;6.70;99.90;;;;;;5005239;28;21121;-68
2021/11/09 07:22:43;;;;;;;25.57;15.90;;;6.60;99.90;;;;;;5010816;28;20454;-69
2021/11/09 07:25:09;;;;;;;24.90;14.40;;;6.50;99.90;;;;;;4999051;28;20451;-70
2021/11/09 07:27:35;;;;;;;22.27;13.27;;;6.50;99.90;;;;;;4991216;28;20537;-70
2021/11/09 07:30:03;;;;;;;20.90;13.50;;;6.40;99.90;;;;;;4991983;28;20619;-70
2021/11/09 07:32:29;;;;;;;21.47;12.53;;;6.40;99.90;;;;;;4990829;28;20805;-71
2021/11/09 07:34:55;;;;;;;22.50;13.97;;;6.50;99.90;;;;;;4992803;28;20498;-70
2021/11/09 07:37:21;;;;;;;21.53;13.67;;;6.50;99.90;;;;;;5007783;28;20188;-69
2021/11/09 07:39:47;;;;;;;23.80;14.07;;;6.60;99.90;;;;;;5011336;28;20455;-70
2021/11/09 07:42:14;;;;;;;19.50;12.50;;;6.60;99.90;;;;;;5012154;28;20192;-70
2021/11/09 07:44:40;;;;;;;17.50;12.23;;;6.70;99.90;;;;;;5011767;28;20445;-68
2021/11/09 07:47:05;;;;;;;21.10;13.97;;;6.70;99.90;;;;;;4997992;28;20446;-70
2021/11/09 07:49:31;;;;;;;21.80;12.87;;;6.70;99.90;;;;;;4998918;28;20688;-68
2021/11/09 07:51:57;;;;;;;23.60;14.80;;;6.80;99.90;;;;;;4997442;28;20676;-70
2021/11/09 07:54:33;;;;;;;21.00;14.27;;;6.90;99.90;;;;;;4996748;28;20487;-69
2021/11/09 07:57:11;;;;;;;24.73;13.77;;;6.90;99.90;;;;;;5006348;28;20548;-70
2021/11/09 07:59:48;;;;;;;30.27;15.50;;;7.00;99.90;;;;;;5016505;28;20534;-69
2021/11/09 08:02:25;;;;;;;23.40;13.73;;;7.10;99.90;;;;;;5016838;28;20445;-70
2021/11/09 08:04:56;;;;;;;15.23;9.90;;;7.20;99.90;;;;;;5016147;28;21213;-69
2021/11/09 08:07:29;;;;;;;13.77;7.83;;;7.30;99.90;;;;;;5014479;28;20481;-69
2021/11/09 08:09:55;;;;;;;14.50;8.80;;;7.40;99.90;;;;;;4998632;28;20468;-69
2021/11/09 08:12:21;;;;;;;14.57;8.40;;;7.60;99.90;;;;;;5021543;28;20418;-71
2021/11/09 08:14:46;;;;;;;13.60;7.20;;;7.70;99.90;;;;;;5003311;28;20521;-69
2021/11/09 08:17:14;;;;;;;14.57;8.03;;;7.80;99.90;;;;;;5020851;28;21048;-70
2021/11/09 08:19:40;;;;;;;19.17;7.77;;;7.90;99.90;;;;;;5018024;28;20537;-71
2021/11/09 08:22:06;;;;;;;15.37;8.10;;;8.00;99.90;;;;;;5038942;22;20493;-71
2021/11/09 08:24:32;;;;;;;11.03;7.40;;;8.10;99.90;;;;;;5022108;28;20424;-72
2021/11/09 08:26:59;;;;;;;12.63;7.30;;;8.20;99.90;;;;;;4995654;28;20175;-71
2021/11/09 08:29:26;;;;;;;11.43;6.87;;;8.20;99.90;;;;;;5031107;28;20178;-71
2021/11/09 08:31:53;;;;;;;10.53;7.03;;;8.30;99.90;;;;;;5025222;28;20430;-71
2021/11/09 08:34:19;;;;;;;13.30;7.40;;;8.30;99.90;;;;;;5014153;28;20463;-72
2021/11/09 08:36:45;;;;;;;9.77;7.67;;;8.40;99.90;;;;;;5013809;28;20415;-72
2021/11/09 08:39:17;;;;;;;10.93;7.20;;;8.50;99.90;;;;;;5016634;28;20429;-72
2021/11/09 08:41:47;;;;;;;12.77;7.33;;;8.50;99.90;;;;;;5020000;28;20446;-71
2021/11/09 08:44:19;;;;;;;14.40;6.63;;;8.60;99.90;;;;;;5036069;28;20816;-72
2021/11/09 08:46:51;;;;;;;11.87;5.40;;;8.60;99.90;;;;;;5037072;28;20424;-71
2021/11/09 08:49:22;;;;;;;8.95;5.50;;;8.70;99.90;;;;;;5018222;28;20361;-71
2021/11/09 08:51:50;;;;;;;11.43;5.70;;;8.80;99.90;;;;;;5033164;28;20804;-72
2021/11/09 08:54:36;;;;;;;9.87;5.43;;;8.80;99.90;;;;;;5034790;28;20449;-71
2021/11/09 09:05:00;;;;;;;10.10;4.90;;;9.10;99.90;;;;;;5036301;28;20401;-72
2021/11/09 09:07:29;;;;;;;8.67;4.90;;;9.20;99.90;;;;;;5036256;28;20412;-72
2021/11/09 09:09:56;;;;;;;8.57;5.17;;;9.20;99.90;;;;;;5035639;28;20658;-72
2021/11/09 09:12:24;;;;;;;7.27;4.90;;;9.30;99.90;;;;;;5035406;28;20433;-72
2021/11/09 09:14:51;;;;;;;11.30;5.40;;;9.40;99.90;;;;;;5033246;28;20421;-71
2021/11/09 09:17:16;;;;;;;8.07;4.87;;;9.50;99.90;;;;;;5035160;28;20417;-71
2021/11/09 09:19:50;;;;;;;6.20;4.50;;;9.50;99.90;;;;;;5017281;28;20975;-72
2021/11/09 09:22:17;;;;;;;7.53;5.43;;;9.60;99.90;;;;;;5034845;28;20584;-71
2021/11/09 09:27:33;;;;;;;6.47;4.40;;;9.80;99.90;;;;;;5033278;28;20424;-72
2021/11/09 09:30:30;;;;;;;8.37;4.93;;;9.80;99.90;;;;;;5034414;28;20520;-71
2021/11/09 09:33:28;;;;;;;6.20;4.50;;;9.90;99.90;;;;;;5034621;28;20471;-71
2021/11/09 09:53:02;;;;;;;8.77;4.57;;;10.50;99.90;;;;;;5035176;28;20547;-71
2021/11/09 09:57:49;;;;;;;6.83;4.93;;;10.60;99.90;;;;;;5044375;28;20790;-71
2021/11/09 10:00:15;;;;;;;6.10;4.60;;;10.70;99.90;;;;;;5034462;28;20425;-71
2021/11/09 10:02:52;;;;;;;7.60;4.00;;;10.60;99.90;;;;;;5016059;28;20272;-72
2021/11/09 10:05:19;;;;;;;6.03;3.50;;;10.70;99.90;;;;;;5038210;28;20905;-72
2021/11/09 10:07:50;;;;;;;4.93;3.60;;;10.70;99.90;;;;;;5032336;28;20425;-71
2021/11/09 10:10:25;;;;;;;6.20;3.53;;;10.80;99.90;;;;;;5034826;28;20406;-71
2021/11/09 10:13:02;;;;;;;5.63;3.37;;;10.80;99.90;;;;;;5034707;28;20526;-72
2021/11/09 10:15:30;;;;;;;7.70;3.70;;;10.90;99.90;;;;;;5034535;28;20912;-71
2021/11/09 10:18:03;;;;;;;6.10;3.30;;;10.90;99.90;;;;;;5033196;28;20516;-71
2021/11/09 10:20:36;;;;;;;5.70;3.27;;;11.00;99.90;;;;;;5036023;28;20394;-71
2021/11/09 10:23:14;;;;;;;7.50;3.90;;;11.10;99.90;;;;;;5035593;28;20536;-71
2021/11/09 10:25:40;;;;;;;5.00;2.93;;;11.20;99.90;;;;;;5034884;28;20529;-71
2021/11/09 10:28:08;;;;;;;7.00;3.40;;;11.30;99.90;;;;;;5032378;28;20426;-73
2021/11/09 10:30:37;;;;;;;4.80;3.40;;;11.40;99.90;;;;;;5017888;28;20411;-71
2021/11/09 10:33:03;;;;;;;7.07;3.90;;;11.40;99.90;;;;;;5015581;28;20890;-71
2021/11/09 10:35:29;;;;;;;5.40;3.17;;;11.50;99.90;;;;;;5013933;28;20415;-71
2021/11/09 10:37:57;;;;;;;6.40;3.20;;;11.60;99.90;;;;;;5014279;28;20493;-71
2021/11/09 10:40:26;;;;;;;6.30;3.47;;;11.60;99.90;;;;;;4997673;28;20966;-71
2021/11/09 10:42:59;;;;;;;4.70;3.10;;;11.70;99.70;;;;;;5028584;28;20864;-70
2021/11/09 10:45:29;;;;;;;3.23;2.70;;;11.70;99.60;;;;;;5033645;28;20414;-71
2021/11/09 10:47:58;;;;;;;5.17;2.93;;;11.80;99.70;;;;;;5033772;28;20550;-72
2021/11/09 10:50:31;;;;;;;3.23;2.80;;;11.90;99.60;;;;;;5016207;28;20425;-70
2021/11/09 10:53:33;;;;;;;5.20;2.80;;;11.80;99.10;;;;;;5032221;28;20520;-71
2021/11/09 10:56:32;;;;;;;4.00;3.17;;;11.80;99.10;;;;;;5032972;28;20430;-72
2021/11/09 11:04:09;;;;;;;4.17;3.43;;;12.00;99.40;;;;;;5043497;28;20436;-72
2021/11/09 11:06:45;;;;;;;4.77;3.10;;;12.00;98.60;;;;;;5025802;28;20436;-72
2021/11/09 11:09:16;;;;;;;4.17;2.97;;;12.00;98.30;;;;;;5037475;28;20944;-71
2021/11/09 11:11:48;;;;;;;6.17;3.27;;;12.10;98.50;;;;;;5016704;28;20536;-72
2021/11/09 11:14:29;;;;;;;8.03;2.97;;;12.20;98.70;;;;;;5033056;28;20464;-72
2021/11/09 11:17:01;;;;;;;6.93;2.60;;;12.20;98.40;;;;;;5034745;28;20437;-73
2021/11/09 11:19:32;;;;;;;3.60;2.70;;;12.20;98.00;;;;;;5035077;28;20433;-71
2021/11/09 11:21:58;;;;;;;3.73;2.83;;;12.20;97.90;;;;;;5034763;28;20448;-71
2021/11/09 11:24:25;;;;;;;3.13;2.70;;;12.10;97.90;;;;;;5031801;28;20429;-72
2021/11/09 11:26:52;;;;;;;4.43;2.50;;;12.20;97.70;;;;;;5032516;28;20440;-71
2021/11/09 11:29:23;;;;;;;5.03;3.00;;;12.20;97.80;;;;;;5034148;28;20421;-71
2021/11/09 11:31:50;;;;;;;4.67;2.73;;;12.20;97.60;;;;;;5037325;28;20495;-72
2021/11/09 11:34:18;;;;;;;4.37;2.97;;;12.30;97.70;;;;;;5036797;28;20465;-71
2021/11/09 11:36:44;;;;;;;4.20;2.60;;;12.30;97.00;;;;;;5035932;28;20421;-71
2021/11/09 11:39:11;;;;;;;9.30;3.73;;;12.20;97.30;;;;;;5032700;28;20413;-72
2021/11/09 11:41:40;;;;;;;3.33;2.47;;;12.30;97.40;;;;;;5034827;28;20479;-72
2021/11/09 11:44:08;;;;;;;5.73;2.77;;;12.30;97.60;;;;;;5018000;28;20978;-71
2021/11/09 11:46:34;;;;;;;5.97;2.57;;;12.40;97.40;;;;;;5033769;28;20849;-71
2021/11/09 11:49:17;;;;;;;6.10;3.33;;;12.40;97.10;;;;;;5036075;28;20410;-72
2021/11/09 11:51:46;;;;;;;2.70;2.23;;;12.40;97.20;;;;;;5035894;28;20198;-72
2021/11/09 11:54:15;;;;;;;2.80;2.40;;;12.40;97.30;;;;;;5035723;28;20448;-72
2021/11/09 11:56:44;;;;;;;5.63;2.63;;;12.30;96.80;;;;;;5034938;28;20452;-72
2021/11/09 11:59:22;;;;;;;4.93;3.40;;;12.40;97.20;;;;;;5037391;28;20410;-72
2021/11/09 12:01:58;;;;;;;3.80;2.73;;;12.40;97.00;;;;;;5036159;28;20426;-73
2021/11/09 12:04:39;;;;;;;7.33;2.70;;;12.40;97.00;;;;;;5034881;28;20428;-72
2021/11/09 12:07:10;;;;;;;5.53;2.83;;;12.30;97.30;;;;;;5033107;28;20964;-71
2021/11/09 12:09:38;;;;;;;9.93;2.97;;;12.30;97.40;;;;;;5032158;28;21024;-71
2021/11/09 12:12:19;;;;;;;5.07;3.57;;;12.30;97.50;;;;;;5032191;28;20425;-72
2021/11/09 12:14:52;;;;;;;5.30;3.03;;;12.30;97.60;;;;;;5032834;28;20858;-71
2021/11/09 12:17:41;;;;;;;5.20;2.97;;;12.30;97.70;;;;;;5030897;28;20445;-72
2021/11/09 12:20:09;;;;;;;4.80;2.53;;;12.20;97.60;;;;;;5020973;28;20787;-71
2021/11/09 12:22:40;;;;;;;4.97;4.00;;;12.20;97.40;;;;;;5028619;28;20457;-70
2021/11/09 12:25:09;;;;;;;6.33;2.70;;;12.20;97.50;;;;;;5012944;28;20418;-73
2021/11/09 12:27:46;;;;;;;5.30;3.13;;;12.20;97.80;;;;;;5016698;28;20456;-72
2021/11/09 12:30:38;;;;;;;3.00;2.70;;;12.20;98.00;;;;;;5013881;28;20404;-72
2021/11/09 12:33:16;;;;;;;5.13;3.00;;;12.20;98.00;;;;;;5017404;28;20454;-72
2021/11/09 12:35:48;;;;;;;5.20;3.43;;;12.20;98.30;;;;;;5018549;28;20394;-73
2021/11/09 12:38:21;;;;;;;3.43;3.13;;;12.10;98.40;;;;;;5036133;28;20409;-72
2021/11/09 12:40:49;;;;;;;6.10;3.20;;;12.20;98.70;;;;;;5016813;28;20454;-72
2021/11/09 12:43:18;;;;;;;9.07;3.20;;;12.20;98.70;;;;;;5034972;28;20417;-72
2021/11/09 12:45:52;;;;;;;6.20;2.77;;;12.10;98.30;;;;;;5036948;28;20414;-73
2021/11/09 12:48:27;;;;;;;6.20;2.73;;;12.10;98.60;;;;;;5035512;28;20420;-72
2021/11/09 12:51:05;;;;;;;6.30;2.70;;;12.10;98.70;;;;;;5035829;28;20463;-71
2021/11/09 12:53:42;;;;;;;7.77;2.63;;;12.10;98.70;;;;;;5033856;28;21044;-71
2021/11/09 12:56:14;;;;;;;4.80;2.70;;;12.00;98.40;;;;;;5035519;28;20389;-70
2021/11/09 13:01:55;;;;;;;2.83;2.23;;;12.00;98.80;;;;;;4992268;28;20438;-71
2021/11/09 13:09:50;;;;;;;4.10;2.93;;;12.10;98.40;;;;;;5013121;28;20588;-71
2021/11/09 13:12:19;;;;;;;4.10;2.80;;;12.20;98.90;;;;;;5011926;28;20503;-71
2021/11/09 13:15:01;;;;;;;4.20;2.73;;;12.20;98.30;;;;;;5000893;28;20813;-71
2021/11/09 13:17:36;;;;;;;9.20;3.17;;;12.20;98.60;;;;;;5009024;28;21070;-71
2021/11/09 13:23:05;;;;;;;5.10;3.10;;;12.10;98.00;;;;;;5003971;28;20457;-72
2021/11/09 13:25:38;;;;;;;4.83;2.60;;;12.20;98.00;;;;;;5010101;28;20415;-72
2021/11/09 13:28:15;;;;;;;8.63;3.27;;;12.30;98.00;;;;;;5011664;28;20454;-71
2021/11/09 13:30:52;;;;;;;2.60;2.40;;;12.30;97.40;;;;;;5002868;28;20511;-71
2021/11/09 13:33:19;;;;;;;3.20;2.30;;;12.40;97.40;;;;;;5011806;28;20465;-72
2021/11/09 13:35:46;;;;;;;4.77;2.80;;;12.40;97.10;;;;;;5013934;28;20439;-71
2021/11/09 13:38:18;;;;;;;5.20;2.83;;;12.50;97.10;;;;;;5012593;28;21212;-71
2021/11/09 13:40:55;;;;;;;4.30;3.30;;;12.50;96.70;;;;;;5013830;28;20440;-70
2021/11/09 13:43:25;;;;;;;3.90;2.67;;;12.60;96.50;;;;;;5009826;28;21016;-71
2021/11/09 13:45:59;;;;;;;5.40;2.60;;;12.70;96.20;;;;;;5013519;28;20434;-71
2021/11/09 13:48:26;;;;;;;5.37;2.70;;;12.80;96.30;;;;;;5012889;28;20421;-71
2021/11/09 13:50:58;;;;;;;3.30;2.40;;;12.80;96.20;;;;;;5013338;28;20418;-71
2021/11/09 13:53:29;;;;;;;3.77;2.60;;;12.90;95.60;;;;;;5013436;28;20468;-72
2021/11/09 13:55:55;;;;;;;3.17;2.60;;;12.90;95.60;;;;;;5015203;28;20938;-72
2021/11/09 13:58:21;;;;;;;2.90;2.13;;;13.00;95.80;;;;;;5012271;28;20419;-71
2021/11/09 14:00:51;;;;;;;7.27;2.70;;;13.00;95.30;;;;;;5011720;28;20465;-72
2021/11/09 14:06:54;;;;;;;4.50;2.47;;;13.10;94.90;;;;;;5013235;28;20445;-71
2021/11/09 14:09:43;;;;;;;6.23;3.43;;;13.20;95.00;;;;;;5020104;28;20617;-71
2021/11/09 14:14:59;;;;;;;3.83;2.30;;;13.30;95.00;;;;;;5014009;28;20434;-71
2021/11/09 14:17:35;;;;;;;4.13;2.40;;;13.30;94.90;;;;;;5025727;28;20529;-72
2021/11/09 14:20:26;;;;;;;4.20;2.70;;;13.30;94.90;;;;;;5008396;28;20575;-73
2021/11/09 14:23:06;;;;;;;4.17;2.50;;;13.20;94.60;;;;;;4994045;28;20985;-72
2021/11/09 14:25:31;;;;;;;9.27;2.93;;;13.10;94.90;;;;;;5009875;28;20437;-71
2021/11/09 14:27:57;;;;;;;3.13;2.50;;;13.00;95.60;;;;;;5016823;28;20425;-71
2021/11/09 14:30:26;;;;;;;4.23;2.03;;;13.00;95.20;;;;;;5009978;28;20191;-71
2021/11/09 14:33:05;;;;;;;4.40;2.20;;;12.80;94.20;;;;;;5008651;28;20207;-71
2021/11/09 14:35:35;;;;;;;4.10;2.40;;;12.70;94.30;;;;;;5013035;28;20517;-71
2021/11/09 14:38:07;;;;;;;4.03;2.30;;;12.70;95.40;;;;;;5018759;28;20429;-70
2021/11/09 14:40:36;;;;;;;4.00;2.30;;;12.60;94.70;;;;;;5027605;28;20429;-69
2021/11/09 14:43:29;;;;;;;6.00;3.20;;;12.60;94.30;;;;;;5020003;28;20545;-74
2021/11/09 14:46:07;;;;;;;3.50;2.30;;;12.60;98.90;;;;;;5020397;28;20426;-70
2021/11/09 14:48:49;;;;;;;6.80;2.13;;;12.50;96.00;;;;;;5025657;28;20509;-71
2021/11/09 14:51:19;;;;;;;3.70;2.60;;;12.50;94.70;;;;;;5012204;28;20558;-73
2021/11/09 14:56:24;;;;;;;4.30;2.90;;;12.40;94.50;;;;;;5025775;22;20498;-71
2021/11/09 14:58:49;;;;;;;5.83;2.10;;;12.30;94.50;;;;;;4988022;28;20430;-71
2021/11/09 15:01:29;;;;;;;3.40;2.13;;;12.30;94.70;;;;;;5000392;28;20484;-71
2021/11/09 15:04:11;;;;;;;2.83;2.40;;;12.20;94.70;;;;;;4983210;28;20208;-72
2021/11/09 15:09:29;;;;;;;3.37;2.40;;;12.10;95.40;;;;;;5008264;28;20422;-72